Time;durP1;ratioP1;P1;durP2;ratioP2;P2;SDS_P1;SDS_P2;PMS_P1;PMS_P2;Temp;Humidity;BMP_temperature;BMP_pressure;BME280_temperature;BME280_humidity;BME280_pressure;Samples;Min_cycle;Max_cycle;Signal;HPM_P1;HPM_P2
2022/08/08 00:02:21;;;;;;;0.90;0.65;;;;;;;19.72;36.47;97676.16;4907385;28;20347;-76
2022/08/08 00:05:02;;;;;;;0.52;0.40;;;;;;;19.62;36.82;97675.28;4900350;28;20184;-76
2022/08/08 00:07:43;;;;;;;0.52;0.40;;;;;;;19.65;36.91;97674.72;4916020;28;20174;-76
2022/08/08 00:10:20;;;;;;;3.90;0.50;;;;;;;19.63;37.13;97682.13;4949251;28;20719;-75
2022/08/08 00:12:51;;;;;;;1.30;0.40;;;;;;;19.44;37.43;97676.88;4897771;28;20181;-76
2022/08/08 00:15:33;;;;;;;0.55;0.50;;;;;;;19.34;37.58;97674.41;4898047;28;20587;-76
2022/08/08 00:18:00;;;;;;;0.60;0.40;;;;;;;19.47;37.24;97678.19;4917900;28;20212;-76
2022/08/08 00:20:36;;;;;;;0.30;0.30;;;;;;;19.34;37.38;97673.66;4914506;28;20232;-76
2022/08/08 00:23:06;;;;;;;1.13;0.55;;;;;;;19.34;36.85;97671.78;4954391;28;20204;-75
2022/08/08 00:25:37;;;;;;;1.17;0.55;;;;;;;19.31;36.80;97671.56;4898361;28;20579;-76
2022/08/08 00:28:05;;;;;;;0.45;0.30;;;;;;;19.34;36.93;97674.41;4898824;28;20264;-76
2022/08/08 00:30:38;;;;;;;1.02;0.45;;;;;;;19.23;37.04;97679.09;4898514;28;20355;-76
2022/08/08 00:33:13;;;;;;;0.50;0.30;;;;;;;19.16;37.25;97681.31;4921720;28;20284;-76
2022/08/08 00:35:57;;;;;;;;;;;;;;;19.06;37.81;97678.81;4937182;28;20280;-76
2022/08/08 00:38:42;;;;;;;0.50;0.40;;;;;;;19.13;37.44;97671.31;4951213;28;20152;-76
2022/08/08 00:41:38;;;;;;;1.45;0.40;;;;;;;19.14;37.42;97680.81;4937689;28;20166;-76
2022/08/08 00:44:06;;;;;;;1.00;0.30;;;;;;;19.25;37.81;97687.50;4894343;28;20202;-76
2022/08/08 00:46:49;;;;;;;0.30;0.30;;;;;;;19.07;38.28;97680.38;4929886;28;20674;-76
2022/08/08 00:49:40;;;;;;;0.70;0.32;;;;;;;19.05;37.46;97678.03;4929871;28;20291;-76
2022/08/08 00:52:28;;;;;;;1.05;0.45;;;;;;;19.10;37.45;97674.53;4903747;28;20277;-76
2022/08/08 00:55:00;;;;;;;1.02;0.40;;;;;;;19.21;37.08;97673.31;4908902;28;20193;-76
2022/08/08 00:57:44;;;;;;;0.60;0.60;;;;;;;19.14;37.89;97670.25;4913964;28;20163;-76
2022/08/08 01:00:20;;;;;;;0.50;0.40;;;;;;;19.14;37.43;97672.91;4989534;28;20563;-76
2022/08/08 01:03:07;;;;;;;0.70;0.43;;;;;;;19.14;37.21;97674.72;4990209;28;20290;-76
2022/08/08 01:06:10;;;;;;;0.60;0.40;;;;;;;19.11;37.47;97667.38;4913253;28;20655;-76
2022/08/08 01:09:02;;;;;;;1.10;0.32;;;;;;;19.03;37.50;97663.56;4914105;28;20197;-76
2022/08/08 01:11:50;;;;;;;0.60;0.55;;;;;;;19.14;37.40;97659.72;4895671;28;20158;-76
2022/08/08 01:14:30;;;;;;;1.30;0.43;;;;;;;18.98;37.84;97659.13;4914017;28;20657;-76
2022/08/08 01:16:56;;;;;;;0.50;0.40;;;;;;;19.09;38.58;97660.56;4929431;28;20177;-76
2022/08/08 01:19:33;;;;;;;0.40;0.32;;;;;;;18.95;38.73;97653.66;4925811;28;20199;-76
2022/08/08 01:22:14;;;;;;;0.98;0.50;;;;;;;18.94;38.71;97658.16;4912338;28;20162;-76
2022/08/08 01:24:59;;;;;;;2.13;0.45;;;;;;;18.65;39.33;97655.63;4929072;28;20277;-76
2022/08/08 01:27:52;;;;;;;1.13;0.40;;;;;;;18.58;39.04;97657.84;4894306;28;20205;-76
2022/08/08 01:30:41;;;;;;;0.60;0.40;;;;;;;18.44;39.09;97653.25;4910425;28;20252;-76
2022/08/08 01:33:44;;;;;;;0.30;0.30;;;;;;;18.44;39.44;97653.25;4876347;28;20200;-76
2022/08/08 01:36:12;;;;;;;0.63;0.40;;;;;;;18.51;39.47;97658.19;4946677;28;20199;-76
2022/08/08 01:38:56;;;;;;;0.50;0.40;;;;;;;18.49;40.04;97661.09;4946159;28;20278;-76
2022/08/08 01:41:30;;;;;;;0.50;0.35;;;;;;;18.36;39.81;97659.16;4929449;28;20325;-76
2022/08/08 01:44:01;;;;;;;0.50;0.40;;;;;;;18.27;39.94;97658.22;4910597;28;20245;-76
2022/08/08 01:46:39;;;;;;;1.85;0.40;;;;;;;18.12;40.04;97653.91;4905712;28;20276;-76
2022/08/08 01:49:34;;;;;;;1.15;0.40;;;;;;;18.09;40.24;97655.25;4929095;28;20279;-76
2022/08/08 01:52:31;;;;;;;0.90;0.40;;;;;;;18.04;40.03;97660.56;4913052;28;20162;-76
2022/08/08 01:55:49;;;;;;;0.75;0.47;;;;;;;18.00;39.97;97654.31;4907884;28;20231;-76
2022/08/08 01:58:26;;;;;;;1.08;0.32;;;;;;;18.15;39.16;97654.13;4920285;28;20221;-76
2022/08/08 02:01:18;;;;;;;0.32;0.30;;;;;;;17.87;40.95;97655.78;4921478;28;20649;-76
2022/08/08 02:03:53;;;;;;;1.33;0.50;;;;;;;17.93;41.00;97659.91;4912951;28;20342;-76
2022/08/08 02:06:30;;;;;;;0.93;0.40;;;;;;;17.83;40.88;97661.84;4895430;28;20288;-76
2022/08/08 02:09:20;;;;;;;0.50;0.30;;;;;;;17.64;41.23;97645.97;4912910;28;20289;-76
2022/08/08 02:11:47;;;;;;;0.63;0.40;;;;;;;17.68;41.23;97660.91;4928914;28;20188;-76
2022/08/08 02:14:29;;;;;;;0.60;0.47;;;;;;;17.60;40.77;97661.53;4912523;28;20259;-76
2022/08/08 02:17:13;;;;;;;0.95;0.40;;;;;;;17.66;40.67;97659.63;4891928;28;20206;-75
2022/08/08 02:19:46;;;;;;;0.43;0.32;;;;;;;17.72;40.96;97664.56;4897866;28;20205;-75
2022/08/08 02:22:57;;;;;;;2.00;0.50;;;;;;;17.61;41.25;97671.00;4911565;28;20253;-75
2022/08/08 02:25:47;;;;;;;0.57;0.40;;;;;;;17.44;42.79;97673.25;4909486;28;20217;-75
2022/08/08 02:28:40;;;;;;;0.70;0.40;;;;;;;17.16;43.49;97675.59;4896921;28;20224;-74
2022/08/08 02:31:15;;;;;;;0.68;0.40;;;;;;;17.10;43.67;97674.84;4927726;28;20208;-75
2022/08/08 02:34:05;;;;;;;0.60;0.50;;;;;;;16.96;43.84;97684.38;4912788;28;20261;-75
2022/08/08 02:36:36;;;;;;;0.60;0.50;;;;;;;16.92;44.13;97675.47;4892509;28;20660;-75
2022/08/08 02:39:24;;;;;;;0.98;0.50;;;;;;;16.88;43.89;97675.25;4893275;28;20284;-74
2022/08/08 02:41:56;;;;;;;0.60;0.40;;;;;;;16.78;43.99;97680.53;4909465;28;20739;-74
2022/08/08 02:44:46;;;;;;;2.58;0.50;;;;;;;16.62;44.23;97680.63;4934119;28;20196;-75
2022/08/08 02:47:38;;;;;;;0.30;0.30;;;;;;;16.59;44.21;97673.28;4927494;28;20296;-75
2022/08/08 02:50:36;;;;;;;0.50;0.50;;;;;;;16.73;43.97;97678.72;4912155;28;20272;-74
2022/08/08 02:53:36;;;;;;;1.40;0.60;;;;;;;16.71;43.96;97678.19;4928311;28;20193;-74
2022/08/08 02:56:13;;;;;;;4.20;0.70;;;;;;;16.74;44.22;97682.94;4910437;28;20864;-74
2022/08/08 02:59:16;;;;;;;1.65;0.70;;;;;;;16.56;44.04;97678.28;4927754;28;20307;-74
2022/08/08 03:01:53;;;;;;;0.80;0.40;;;;;;;16.65;43.64;97668.75;4946384;28;20188;-75
2022/08/08 03:04:38;;;;;;;1.25;0.47;;;;;;;16.72;43.36;97673.72;4911489;28;20666;-74
2022/08/08 03:07:32;;;;;;;0.40;0.40;;;;;;;16.82;43.26;97676.28;4911839;28;20658;-75
2022/08/08 03:10:25;;;;;;;0.85;0.50;;;;;;;16.74;42.99;97666.34;4910341;28;20220;-77
2022/08/08 03:13:28;;;;;;;0.75;0.45;;;;;;;16.88;42.72;97672.63;4946346;28;20588;-75
2022/08/08 03:16:11;;;;;;;1.23;0.93;;;;;;;16.93;42.84;97675.22;4927979;28;20299;-75
2022/08/08 03:18:37;;;;;;;0.85;0.38;;;;;;;16.99;43.19;97671.47;4910647;28;20640;-74
2022/08/08 03:21:02;;;;;;;1.45;0.40;;;;;;;16.92;43.73;97673.63;4927170;28;20256;-75
2022/08/08 03:23:29;;;;;;;1.23;0.30;;;;;;;16.87;43.78;97672.88;4927753;28;20265;-75
2022/08/08 03:25:56;;;;;;;1.52;0.73;;;;;;;16.86;44.01;97677.34;4910708;28;20193;-75
2022/08/08 03:28:43;;;;;;;1.48;0.30;;;;;;;16.59;44.50;97668.00;4926627;28;20170;-75
2022/08/08 03:33:53;;;;;;;1.10;0.40;;;;;;;16.80;43.24;97665.25;4933105;28;20756;-75
2022/08/08 03:36:18;;;;;;;1.80;0.40;;;;;;;16.89;43.04;97668.91;4899044;28;20249;-75
2022/08/08 03:38:49;;;;;;;0.40;0.40;;;;;;;16.84;43.52;97672.38;4914964;28;20229;-74
2022/08/08 03:41:14;;;;;;;0.57;0.55;;;;;;;16.91;43.43;97668.63;4899776;28;20598;-75
2022/08/08 03:43:40;;;;;;;0.40;0.40;;;;;;;16.89;43.55;97671.53;4915039;28;20184;-75
2022/08/08 03:46:05;;;;;;;0.68;0.35;;;;;;;16.87;43.50;97660.50;4899132;28;20241;-74
2022/08/08 03:48:31;;;;;;;0.82;0.68;;;;;;;16.85;43.18;97673.16;4911331;28;20687;-75
2022/08/08 03:50:56;;;;;;;0.70;0.40;;;;;;;16.83;43.14;97675.25;4930430;28;20694;-75
2022/08/08 03:53:21;;;;;;;0.55;0.40;;;;;;;16.80;43.61;97676.56;4912565;28;20262;-75
2022/08/08 03:55:49;;;;;;;0.93;0.38;;;;;;;16.73;43.56;97677.94;4911944;28;20287;-75
2022/08/08 03:58:23;;;;;;;0.60;0.40;;;;;;;16.61;44.08;97673.78;4905984;28;20193;-74
2022/08/08 04:00:53;;;;;;;0.90;0.40;;;;;;;16.58;43.47;97676.94;4914807;28;20162;-74
2022/08/08 04:03:19;;;;;;;1.20;0.40;;;;;;;16.70;43.17;97681.88;4931715;28;20207;-74
2022/08/08 04:05:45;;;;;;;0.40;0.30;;;;;;;16.75;43.18;97679.22;4915194;28;20241;-74
2022/08/08 04:08:16;;;;;;;1.67;0.45;;;;;;;16.73;42.65;97680.56;4913821;28;20217;-74
2022/08/08 04:10:45;;;;;;;0.77;0.38;;;;;;;16.80;42.84;97684.44;4915046;28;20646;-74
2022/08/08 04:13:11;;;;;;;1.60;0.40;;;;;;;16.94;42.50;97683.88;4898617;28;20221;-74
2022/08/08 04:15:36;;;;;;;1.02;0.38;;;;;;;16.96;42.50;97690.44;4915160;28;20556;-74
2022/08/08 04:18:01;;;;;;;1.15;0.40;;;;;;;16.96;42.72;97679.91;4928350;28;20324;-74
2022/08/08 04:20:28;;;;;;;0.40;0.30;;;;;;;17.00;42.31;97685.44;4913864;28;20566;-74
2022/08/08 04:22:54;;;;;;;0.70;0.43;;;;;;;17.02;42.45;97689.34;4912007;28;20194;-74
2022/08/08 04:25:20;;;;;;;0.98;0.50;;;;;;;16.99;42.58;97689.13;4913801;28;20221;-74
2022/08/08 04:27:45;;;;;;;1.02;0.50;;;;;;;16.90;43.16;97683.66;4894534;28;20617;-74
2022/08/08 04:30:11;;;;;;;0.50;0.40;;;;;;;16.88;43.30;97691.03;4914855;28;20303;-74
2022/08/08 04:32:37;;;;;;;1.52;0.50;;;;;;;16.83;43.37;97691.81;4949349;28;20261;-74
2022/08/08 04:35:02;;;;;;;0.65;0.38;;;;;;;16.81;43.58;97693.94;4898606;28;20235;-75
2022/08/08 04:37:28;;;;;;;0.88;0.40;;;;;;;16.90;43.22;97701.28;4914957;28;20635;-75
2022/08/08 04:39:55;;;;;;;0.50;0.50;;;;;;;16.92;43.21;97702.56;4894869;28;20287;-75
2022/08/08 04:42:21;;;;;;;0.90;0.50;;;;;;;16.92;43.07;97705.19;4930882;28;20174;-74
2022/08/08 04:44:46;;;;;;;0.50;0.40;;;;;;;16.93;43.06;97711.22;4887681;28;20308;-75
2022/08/08 04:47:12;;;;;;;1.17;0.50;;;;;;;16.94;43.08;97703.06;4885465;28;20321;-74
2022/08/08 04:49:37;;;;;;;1.48;0.52;;;;;;;16.98;43.37;97714.63;4897904;28;20713;-75
2022/08/08 04:52:03;;;;;;;1.48;0.52;;;;;;;16.98;43.51;97714.63;4897925;28;20284;-74
2022/08/08 04:54:28;;;;;;;0.57;0.50;;;;;;;17.00;43.54;97717.78;4913946;28;20609;-74
2022/08/08 04:56:53;;;;;;;0.60;0.40;;;;;;;16.98;43.94;97713.84;4898197;28;20743;-74
2022/08/08 04:59:19;;;;;;;1.75;0.40;;;;;;;16.98;43.55;97714.63;4896373;28;20224;-75
2022/08/08 05:01:44;;;;;;;1.17;0.70;;;;;;;16.95;43.92;97719.66;4897198;28;20655;-74
2022/08/08 05:04:10;;;;;;;0.98;0.30;;;;;;;16.99;43.95;97721.47;4929383;28;20377;-75
2022/08/08 05:06:36;;;;;;;0.90;0.73;;;;;;;16.97;44.32;97731.47;4909695;28;20480;-74
2022/08/08 05:09:01;;;;;;;1.63;0.40;;;;;;;17.04;44.33;97725.91;4884721;28;20295;-74
2022/08/08 05:11:31;;;;;;;0.75;0.63;;;;;;;17.08;44.20;97729.56;4913706;28;20299;-75
2022/08/08 05:13:56;;;;;;;0.52;0.40;;;;;;;17.18;43.64;97728.72;4913226;28;20284;-75
2022/08/08 05:16:22;;;;;;;0.65;0.50;;;;;;;17.21;43.85;97728.19;4896002;28;20229;-75
2022/08/08 05:18:47;;;;;;;1.20;0.50;;;;;;;17.28;43.66;97741.81;4912018;28;20643;-75
2022/08/08 05:21:12;;;;;;;1.35;0.60;;;;;;;17.31;43.76;97732.59;4932018;28;20654;-74
2022/08/08 05:23:38;;;;;;;0.70;0.50;;;;;;;17.41;43.29;97743.81;4929249;28;20217;-75
2022/08/08 05:26:03;;;;;;;1.35;0.60;;;;;;;17.51;42.98;97737.72;4912440;28;20698;-75
2022/08/08 05:28:29;;;;;;;1.15;0.68;;;;;;;17.55;43.26;97737.94;4897251;28;20404;-75
2022/08/08 05:30:54;;;;;;;0.95;0.55;;;;;;;17.69;43.24;97744.13;4911150;28;20251;-75
2022/08/08 05:33:20;;;;;;;1.15;0.60;;;;;;;17.77;43.42;97740.91;4896300;28;20171;-75
2022/08/08 05:35:45;;;;;;;0.52;0.40;;;;;;;17.86;43.11;97742.94;4896595;28;20707;-74
2022/08/08 05:38:17;;;;;;;0.57;0.45;;;;;;;17.80;43.49;97744.81;4896064;28;20178;-75
2022/08/08 05:40:51;;;;;;;2.15;0.50;;;;;;;17.84;43.60;97747.69;4917660;28;20268;-74
2022/08/08 05:43:27;;;;;;;0.65;0.65;;;;;;;17.87;43.65;97750.59;4922778;28;20426;-74
2022/08/08 05:46:03;;;;;;;0.70;0.50;;;;;;;17.96;43.03;97748.16;4920651;28;20482;-75
2022/08/08 05:48:29;;;;;;;1.00;0.50;;;;;;;18.20;42.25;97745.53;4936844;28;20281;-75
2022/08/08 05:50:55;;;;;;;1.55;0.60;;;;;;;18.24;42.86;97751.03;4901818;28;20232;-75
2022/08/08 05:53:27;;;;;;;0.73;0.50;;;;;;;18.29;42.74;97754.41;4932874;28;20732;-75
2022/08/08 05:55:55;;;;;;;0.85;0.60;;;;;;;18.34;42.46;97750.94;4933306;28;20184;-75
2022/08/08 05:58:30;;;;;;;0.60;0.30;;;;;;;18.40;42.23;97754.28;4943755;28;20170;-75
2022/08/08 06:00:56;;;;;;;;;;;;;;;18.36;42.52;97755.94;4925751;28;20271;-74
2022/08/08 06:03:22;;;;;;;0.70;0.60;;;;;;;18.66;42.04;97762.69;4910749;28;20073;-75
2022/08/08 06:05:56;;;;;;;0.60;0.40;;;;;;;18.60;40.99;97759.34;4912485;28;20186;-75
2022/08/08 06:08:30;;;;;;;0.50;0.50;;;;;;;18.62;40.73;97759.06;4929246;28;20185;-76
2022/08/08 06:10:58;;;;;;;0.75;0.30;;;;;;;19.00;40.33;97764.41;4897980;28;20271;-75
2022/08/08 06:13:24;;;;;;;0.40;0.40;;;;;;;19.22;39.79;97767.25;4892646;28;20321;-74
2022/08/08 06:15:53;;;;;;;2.22;0.57;;;;;;;19.38;39.41;97769.69;4895898;28;20267;-75
2022/08/08 06:18:22;;;;;;;0.52;0.32;;;;;;;19.32;39.28;97770.84;4896295;28;20279;-75
2022/08/08 06:20:49;;;;;;;1.55;0.50;;;;;;;19.56;39.01;97771.53;4912716;28;20304;-74
2022/08/08 06:23:14;;;;;;;1.00;0.55;;;;;;;19.61;38.98;97782.00;4896213;28;20201;-75
2022/08/08 06:25:41;;;;;;;1.60;0.50;;;;;;;19.74;38.81;97777.91;4907900;28;20225;-74
2022/08/08 06:28:14;;;;;;;1.23;0.30;;;;;;;19.81;38.86;97780.16;4914445;28;20174;-74
2022/08/08 06:30:42;;;;;;;0.85;0.38;;;;;;;19.98;38.37;97783.03;4892769;28;20309;-75
2022/08/08 06:33:10;;;;;;;0.98;0.32;;;;;;;20.17;38.35;97780.34;4908598;28;20284;-74
2022/08/08 06:35:39;;;;;;;0.60;0.38;;;;;;;20.17;37.51;97780.34;4892668;28;20222;-74
2022/08/08 06:38:05;;;;;;;0.52;0.30;;;;;;;20.47;37.92;97788.00;4909258;28;20241;-75
2022/08/08 06:40:32;;;;;;;0.95;0.40;;;;;;;20.55;37.50;97789.97;4892623;28;20209;-75
2022/08/08 06:43:07;;;;;;;0.50;0.40;;;;;;;20.58;36.83;97790.16;4909087;28;20209;-75
2022/08/08 06:45:32;;;;;;;1.27;0.30;;;;;;;20.86;36.77;97784.09;4876763;28;20261;-75
2022/08/08 06:47:59;;;;;;;2.00;0.50;;;;;;;20.97;35.81;97785.44;4908769;28;20284;-75
2022/08/08 06:50:25;;;;;;;0.45;0.32;;;;;;;21.23;35.46;97782.22;4926708;28;20305;-75
2022/08/08 06:52:51;;;;;;;0.85;0.85;;;;;;;21.51;35.34;97794.34;4908939;28;20173;-75
2022/08/08 06:55:24;;;;;;;1.33;0.40;;;;;;;21.62;35.16;97789.59;4903041;28;20200;-75
2022/08/08 06:57:53;;;;;;;0.57;0.50;;;;;;;21.85;35.02;97792.25;4896497;28;20208;-75
2022/08/08 07:00:18;;;;;;;0.77;0.40;;;;;;;22.27;34.35;97787.47;4922013;28;20835;-75
2022/08/08 07:02:54;;;;;;;1.38;0.50;;;;;;;22.13;34.13;97790.22;4930670;28;20328;-75
2022/08/08 07:05:24;;;;;;;0.88;0.43;;;;;;;22.26;33.76;97793.88;4897634;28;20321;-75
2022/08/08 07:07:55;;;;;;;0.40;0.40;;;;;;;22.27;33.20;97784.81;4927380;28;20209;-75
2022/08/08 07:10:22;;;;;;;0.70;0.50;;;;;;;22.71;32.67;97800.94;4928207;28;20263;-75
2022/08/08 07:12:53;;;;;;;0.40;0.40;;;;;;;22.83;32.89;97805.63;4911952;28;20367;-75
2022/08/08 07:15:35;;;;;;;0.40;0.40;;;;;;;23.09;32.25;97809.13;4927440;28;20256;-75
2022/08/08 07:18:04;;;;;;;2.25;0.50;;;;;;;23.09;31.72;97806.47;4927200;28;20193;-75
2022/08/08 07:20:32;;;;;;;1.00;0.40;;;;;;;23.42;31.51;97802.59;4895673;28;20287;-75
2022/08/08 07:23:02;;;;;;;0.88;0.50;;;;;;;23.59;31.29;97807.91;4895940;28;20192;-75
2022/08/08 07:25:31;;;;;;;0.98;0.40;;;;;;;23.82;30.72;97810.41;4911151;28;20197;-75
2022/08/08 07:28:07;;;;;;;0.70;0.43;;;;;;;23.44;31.20;97813.69;4912233;28;20654;-75
2022/08/08 07:30:32;;;;;;;0.50;0.30;;;;;;;24.08;30.55;97818.34;4927255;28;20650;-75
2022/08/08 07:32:59;;;;;;;0.75;0.40;;;;;;;23.95;30.41;97814.78;4911849;28;20178;-75
2022/08/08 07:35:26;;;;;;;1.85;0.40;;;;;;;24.15;30.26;97812.56;4895399;28;20228;-74
2022/08/08 07:37:52;;;;;;;1.08;0.40;;;;;;;24.29;29.97;97815.78;4911831;28;20270;-75
2022/08/08 07:40:17;;;;;;;0.35;0.35;;;;;;;23.96;30.24;97818.19;4912051;28;20298;-74
2022/08/08 07:42:43;;;;;;;2.25;0.45;;;;;;;24.25;30.33;97817.53;4896035;28;20223;-75
2022/08/08 07:45:09;;;;;;;1.80;0.57;;;;;;;24.34;30.20;97822.81;4901660;28;20179;-75
2022/08/08 07:47:35;;;;;;;0.55;0.40;;;;;;;24.67;29.75;97823.00;4898028;28;20176;-75
2022/08/08 07:50:00;;;;;;;1.10;0.40;;;;;;;24.83;29.95;97817.91;4927983;28;20235;-75
2022/08/08 07:52:26;;;;;;;0.93;0.57;;;;;;;24.94;29.41;97818.34;4895987;28;20819;-75
2022/08/08 07:55:07;;;;;;;1.75;0.63;;;;;;;25.03;29.17;97825.16;4895114;28;20619;-75
2022/08/08 07:57:37;;;;;;;1.35;0.40;;;;;;;25.47;28.74;97822.22;4911803;28;20296;-75
2022/08/08 08:00:10;;;;;;;0.40;0.40;;;;;;;25.83;28.81;97822.69;4895656;28;20182;-75
2022/08/08 08:03:06;;;;;;;1.15;0.73;;;;;;;25.64;28.71;97828.53;4911966;28;20650;-75
2022/08/08 08:05:37;;;;;;;1.60;0.60;;;;;;;25.88;28.44;97820.59;4910262;28;20227;-75
2022/08/08 08:08:05;;;;;;;1.40;0.80;;;;;;;26.15;27.72;97829.94;4911687;28;20742;-75
2022/08/08 08:10:33;;;;;;;0.98;0.50;;;;;;;26.51;27.90;97824.94;4896503;28;20656;-75
2022/08/08 08:13:19;;;;;;;0.50;0.50;;;;;;;26.43;27.73;97833.88;4930040;28;20273;-75
2022/08/08 08:16:08;;;;;;;0.73;0.50;;;;;;;26.73;27.25;97829.09;4912833;28;20185;-75
2022/08/08 08:18:41;;;;;;;0.50;0.50;;;;;;;26.93;27.03;97829.31;4927078;28;20295;-75
2022/08/08 08:21:07;;;;;;;1.10;0.45;;;;;;;27.26;26.96;97831.81;4899313;28;20119;-76
2022/08/08 08:23:32;;;;;;;0.82;0.40;;;;;;;27.32;26.34;97830.50;4915181;28;20537;-76
2022/08/08 08:25:58;;;;;;;1.85;0.60;;;;;;;27.32;26.35;97835.06;4931144;28;20698;-75
2022/08/08 08:28:24;;;;;;;5.80;0.50;;;;;;;27.51;26.75;97827.22;4898883;28;20172;-75
2022/08/08 08:30:50;;;;;;;1.60;0.90;;;;;;;27.72;26.24;97839.63;4898147;28;20272;-75
2022/08/08 08:33:16;;;;;;;0.52;0.52;;;;;;;27.83;26.11;97838.78;4898524;28;20192;-75
2022/08/08 08:35:41;;;;;;;0.82;0.50;;;;;;;28.01;25.88;97841.16;4898588;28;20213;-75
2022/08/08 08:38:06;;;;;;;0.68;0.50;;;;;;;28.21;25.92;97840.16;4914876;28;20292;-75
2022/08/08 08:40:32;;;;;;;0.70;0.30;;;;;;;28.28;25.82;97841.47;4898703;28;20283;-75
2022/08/08 08:42:59;;;;;;;0.88;0.45;;;;;;;28.55;25.14;97840.63;4914876;28;20737;-75
2022/08/08 08:45:24;;;;;;;1.67;0.65;;;;;;;28.79;25.46;97832.72;4927268;28;20468;-75
2022/08/08 08:47:51;;;;;;;1.15;0.32;;;;;;;28.45;25.20;97840.34;4895275;28;20268;-75
2022/08/08 08:50:17;;;;;;;3.55;0.63;;;;;;;28.49;25.43;97836.63;4903648;28;20771;-75
2022/08/08 08:52:43;;;;;;;1.58;0.80;;;;;;;28.94;24.37;97840.75;4914488;28;20348;-75
2022/08/08 08:55:13;;;;;;;3.22;0.70;;;;;;;29.02;23.91;97835.56;4898668;28;20193;-75
2022/08/08 08:57:40;;;;;;;1.75;0.70;;;;;;;29.23;23.99;97841.38;4914346;28;20260;-75
2022/08/08 09:00:07;;;;;;;1.05;0.50;;;;;;;29.55;23.87;97835.13;4930858;28;20166;-75
2022/08/08 09:02:33;;;;;;;2.33;0.60;;;;;;;29.41;23.41;97838.31;4898531;28;20432;-75
2022/08/08 09:05:02;;;;;;;2.33;0.63;;;;;;;29.33;23.62;97846.19;4914134;28;20271;-75
2022/08/08 09:07:29;;;;;;;3.50;0.57;;;;;;;29.53;23.79;97835.47;4914258;28;20193;-75
2022/08/08 09:09:56;;;;;;;0.85;0.80;;;;;;;29.88;23.49;97842.66;4914535;28;20214;-74
2022/08/08 09:12:22;;;;;;;0.98;0.68;;;;;;;29.90;23.03;97836.94;4898422;28;20275;-75
2022/08/08 09:14:50;;;;;;;1.30;0.80;;;;;;;29.92;23.18;97838.16;4930103;28;20161;-75
2022/08/08 09:17:16;;;;;;;1.35;1.05;;;;;;;30.36;22.90;97837.78;4913825;28;20237;-75
2022/08/08 09:19:42;;;;;;;0.70;0.50;;;;;;;30.28;23.26;97838.78;4914184;28;20272;-75
2022/08/08 09:22:07;;;;;;;1.48;0.60;;;;;;;30.04;22.55;97837.19;4903733;28;20192;-75
2022/08/08 09:24:34;;;;;;;1.05;0.60;;;;;;;30.45;22.83;97832.16;4933209;28;20204;-75
2022/08/08 09:27:07;;;;;;;0.88;0.60;;;;;;;29.92;22.66;97848.91;4933479;28;20270;-75
2022/08/08 09:30:02;;;;;;;1.13;0.68;;;;;;;29.20;23.29;97844.78;4892473;28;20354;-75
2022/08/08 09:32:36;;;;;;;0.85;0.63;;;;;;;29.25;23.64;97847.19;4896055;28;20220;-75
2022/08/08 09:35:07;;;;;;;0.90;0.60;;;;;;;29.94;22.45;97838.56;4913091;28;20221;-75
2022/08/08 09:37:42;;;;;;;2.63;0.70;;;;;;;29.57;22.83;97839.00;4929229;28;20209;-75
2022/08/08 09:40:09;;;;;;;3.22;0.88;;;;;;;29.91;22.73;97836.59;4913557;28;20269;-75
2022/08/08 09:43:09;;;;;;;3.05;0.68;;;;;;;30.15;22.91;97840.84;4916544;28;20374;-74
2022/08/08 09:45:47;;;;;;;0.95;0.40;;;;;;;30.16;22.34;97830.88;4902487;28;20288;-75
2022/08/08 09:48:15;;;;;;;3.70;0.70;;;;;;;30.14;22.13;97830.47;4893307;28;20269;-75
2022/08/08 09:50:41;;;;;;;1.15;0.70;;;;;;;29.84;22.93;97828.41;4893938;28;20298;-75
2022/08/08 09:53:08;;;;;;;3.42;0.60;;;;;;;30.12;22.44;97827.38;4878338;28;20402;-75
2022/08/08 09:55:33;;;;;;;0.50;0.50;;;;;;;29.82;22.52;97830.69;4893840;28;20252;-75
2022/08/08 09:58:15;;;;;;;0.82;0.65;;;;;;;29.99;22.67;97838.28;4915961;28;20291;-75
2022/08/08 10:00:43;;;;;;;1.20;1.00;;;;;;;30.27;22.59;97828.41;4929568;28;20154;-75
2022/08/08 10:03:13;;;;;;;1.77;0.80;;;;;;;30.56;22.21;97822.34;4897499;28;20170;-74
2022/08/08 10:05:39;;;;;;;1.25;0.80;;;;;;;30.76;21.73;97825.72;4913107;28;20107;-75
2022/08/08 10:08:05;;;;;;;0.70;0.70;;;;;;;31.50;21.52;97824.41;4929422;28;20596;-75
2022/08/08 10:10:48;;;;;;;2.10;0.70;;;;;;;31.36;21.07;97826.94;4913382;28;20273;-75
2022/08/08 10:13:20;;;;;;;1.50;0.55;;;;;;;31.58;20.84;97821.81;4897100;28;20213;-75
2022/08/08 10:15:48;;;;;;;0.73;0.73;;;;;;;31.88;20.55;97822.50;4913184;28;20194;-75
2022/08/08 10:18:26;;;;;;;2.15;0.60;;;;;;;31.58;21.03;97822.56;4913088;28;20303;-75
2022/08/08 10:20:54;;;;;;;0.55;0.50;;;;;;;31.41;20.92;97821.22;4913140;28;20368;-75
2022/08/08 10:23:38;;;;;;;1.60;0.70;;;;;;;31.61;20.77;97810.31;4897095;28;20235;-75
2022/08/08 10:26:04;;;;;;;0.77;0.60;;;;;;;31.89;20.43;97804.41;4912979;28;20287;-75
2022/08/08 10:28:35;;;;;;;0.63;0.60;;;;;;;31.53;20.47;97804.84;4912768;28;20579;-75
2022/08/08 10:33:45;;;;;;;0.80;0.80;;;;;;;31.04;21.24;97813.06;4931383;28;20675;-75
2022/08/08 10:36:10;;;;;;;0.55;0.52;;;;;;;31.03;21.52;97806.91;4896721;28;20204;-76
2022/08/08 10:38:36;;;;;;;2.13;0.80;;;;;;;31.15;21.34;97813.97;4928932;28;20611;-76
2022/08/08 10:41:03;;;;;;;0.90;0.90;;;;;;;31.68;21.04;97799.59;4896585;28;20209;-76
2022/08/08 10:43:37;;;;;;;1.45;0.82;;;;;;;32.37;20.48;97799.09;4895581;28;20463;-75
2022/08/08 10:46:02;;;;;;;0.68;0.68;;;;;;;32.63;19.27;97797.38;4909224;28;20329;-76
2022/08/08 10:48:35;;;;;;;1.00;0.88;;;;;;;32.82;19.96;97804.44;4876920;28;20711;-76
2022/08/08 10:51:11;;;;;;;0.95;0.60;;;;;;;33.02;19.03;97800.28;4893063;28;20368;-76
2022/08/08 10:53:36;;;;;;;0.85;0.70;;;;;;;33.25;19.21;97793.09;4893137;28;20677;-75
2022/08/08 10:56:02;;;;;;;2.97;1.10;;;;;;;33.35;19.48;97795.06;4877284;28;20324;-75
2022/08/08 10:58:27;;;;;;;2.30;0.80;;;;;;;33.65;19.56;97792.03;4909284;28;20197;-75
2022/08/08 11:00:54;;;;;;;1.05;1.05;;;;;;;33.55;19.02;97787.38;4909298;28;20546;-75
2022/08/08 11:03:20;;;;;;;1.33;0.90;;;;;;;33.49;18.69;97791.63;4892239;28;20185;-75
2022/08/08 11:05:49;;;;;;;1.15;0.95;;;;;;;33.47;18.96;97793.91;4909020;28;20222;-75
2022/08/08 11:08:23;;;;;;;1.48;1.15;;;;;;;32.56;18.99;97795.38;4892938;28;20235;-74
2022/08/08 11:11:00;;;;;;;1.80;1.02;;;;;;;33.18;19.26;97783.03;4877269;28;20332;-75
2022/08/08 11:13:25;;;;;;;1.55;0.80;;;;;;;33.31;18.77;97789.63;4908668;28;20189;-75
2022/08/08 11:15:54;;;;;;;1.13;1.05;;;;;;;33.39;18.84;97791.19;4877326;28;20200;-75
2022/08/08 11:18:19;;;;;;;0.80;0.80;;;;;;;33.43;18.38;97790.44;4908845;28;20177;-75
2022/08/08 11:20:46;;;;;;;0.80;0.80;;;;;;;33.17;18.35;97782.25;4876780;28;20220;-75
2022/08/08 11:23:12;;;;;;;0.82;0.80;;;;;;;33.16;18.85;97778.03;4893072;28;20277;-76
2022/08/08 11:25:39;;;;;;;1.10;1.00;;;;;;;32.81;18.94;97781.28;4892524;28;20312;-74
2022/08/08 11:28:05;;;;;;;2.03;0.90;;;;;;;33.09;18.37;97780.66;4892656;28;20210;-76
2022/08/08 11:30:35;;;;;;;1.95;0.80;;;;;;;32.89;18.73;97771.31;4892697;28;20245;-75
2022/08/08 11:33:04;;;;;;;0.88;0.88;;;;;;;32.14;19.66;97775.03;4893457;28;20202;-75
2022/08/08 11:35:30;;;;;;;1.65;1.20;;;;;;;32.16;19.95;97771.97;4892392;28;20261;-75
2022/08/08 11:37:55;;;;;;;1.27;0.70;;;;;;;31.93;20.18;97776.38;4892744;28;20281;-75
2022/08/08 11:40:21;;;;;;;1.02;0.80;;;;;;;32.14;19.96;97768.88;4876740;28;20339;-75
2022/08/08 11:42:47;;;;;;;0.80;0.70;;;;;;;31.87;20.07;97755.53;4908523;28;20718;-75
2022/08/08 11:45:13;;;;;;;1.63;1.23;;;;;;;32.36;19.68;97772.53;4876161;28;20711;-75
2022/08/08 11:47:41;;;;;;;1.75;0.68;;;;;;;32.60;18.95;97771.13;4892553;28;20175;-75
2022/08/08 11:50:09;;;;;;;1.75;0.90;;;;;;;32.77;18.95;97772.41;4926465;28;20352;-75
2022/08/08 11:52:36;;;;;;;2.65;1.13;;;;;;;32.77;19.13;97762.41;4892704;28;20276;-75
2022/08/08 11:55:13;;;;;;;1.25;0.77;;;;;;;31.84;19.82;97767.84;4894455;28;20214;-74
2022/08/08 11:57:39;;;;;;;1.45;0.85;;;;;;;32.24;19.91;97768.19;4880583;28;20260;-75
2022/08/08 12:00:06;;;;;;;0.90;0.80;;;;;;;32.56;19.17;97768.41;4880296;28;20295;-75
2022/08/08 12:02:32;;;;;;;1.15;0.80;;;;;;;33.04;18.83;97768.31;4896414;28;20808;-75
2022/08/08 12:05:05;;;;;;;2.08;0.85;;;;;;;33.10;18.87;97757.91;4895456;28;20286;-75